Persian Virtual

Persian Virtual Airlines! DIVERSITY OF QUALITY



 METAR AND TAF INFORMATION
METAR FOR LTAU
ADDS - METARS form results

(1110 UTC 17 April 2021)
Data provider http://aviationweather.gov/metar/data/
 
METAR text: LTAU 171050Z 05006KT 010V100 9999 FEW040 SCT100 BKN180 19/08 Q1020 NOSIG RMK RWY07 02007KT 340V080
Conditions at: LTAU (KAYSERI/ERKILET , TR) observed 1050 UTC 17 April 2021
Temperature: 19.0°C (66°F)
Dewpoint: 8.0°C (46°F) [RH = 49%]
Pressure (altimeter): 30.12 inches Hg (1020.0 mb)
Winds: from the NE (50 degrees) at 7 MPH (6 knots; 3.1 m/s)
Visibility: 6 or more miles (10+ km)
Ceiling: 18000 feet AGL
Clouds: few clouds at 4000 feet AGL
scattered clouds at 10000 feet AGL
broken clouds at 18000 feet AGL
Weather: no significant weather observed at this time

METAR text: LTAU 171020Z 04005KT 010V070 9999 FEW040 SCT100 BKN180 18/07 Q1020 NOSIG RMK RWY07 03006KT
Conditions at: LTAU (KAYSERI/ERKILET , TR) observed 1020 UTC 17 April 2021
Temperature: 18.0°C (64°F)
Dewpoint: 7.0°C (45°F) [RH = 49%]
Pressure (altimeter): 30.12 inches Hg (1020.0 mb)
Winds: from the NE (40 degrees) at 6 MPH (5 knots; 2.6 m/s)
Visibility: 6 or more miles (10+ km)
Ceiling: 18000 feet AGL
Clouds: few clouds at 4000 feet AGL
scattered clouds at 10000 feet AGL
broken clouds at 18000 feet AGL
Weather: no significant weather observed at this time

Forecast for: LTAU (KAYSERI/ERKILET , TR)
Text: TAF LTAU 171040Z 1712/1812 VRB02KT 9999 FEW040 SCT100 BKN180
Forecast period: 1200 UTC 17 April 2021 to 1200 UTC 18 April 2021
Forecast type: FROM: standard forecast or significant change
Winds: variable direction winds at 2 MPH (2 knots; 1.0 m/s)
Visibility: 6 or more miles (10+ km)
Ceiling: 18000 feet AGL
Clouds: few clouds at 4000 feet AGL
scattered clouds at 10000 feet AGL
broken clouds at 18000 feet AGL
Weather: no significant weather forecast for this period
Text: TEMPO 1712/1716 -SHRA FEW030CB BKN035
Forecast period: 1200 to 1600 UTC 17 April 2021
Forecast type: TEMPORARY: The following changes expected for less than half the time period
Visibility: missing
Ceiling: 3500 feet AGL
Clouds: few clouds at 3000 feet AGL
broken clouds at 3500 feet AGL
Weather: -SHRA  (light rain showers)
Text: TEMPO 1803/1806 -SHRA FEW030CB BKN035
Forecast period: 0300 to 0600 UTC 18 April 2021
Forecast type: TEMPORARY: The following changes expected for less than half the time period
Visibility: missing
Ceiling: 3500 feet AGL
Clouds: few clouds at 3000 feet AGL
broken clouds at 3500 feet AGL
Weather: -SHRA  (light rain showers)

 AIRPORT MAP

 RUNWAY INFORMATION
Runway 07 Runway length 9841 ft Runway width 145 ft
Runway elevation 3449 ft Runway displaced threshold 0 ft Runway heading 76
Runway 25 Runway length 9841 ft Runway width 145 ft
Runway elevation 3463 ft Runway displaced threshold 0 ft Runway heading 256

 AIRPORT FREQUENCIES

 AIRPORT NEAR NAVIGATION AIDS
Type TACAN Name Kayseri Frequency 116900 KHZ
Type VOR-DME Name Kayseri Frequency 116300 KHZ